sensor_id;sensor_type;location;lat;lon;timestamp;temperature;humidity
15713;DHT22;7957;51.608;6.916;2023-08-06T00:01:40;16.60;99.90
15713;DHT22;7957;51.608;6.916;2023-08-06T00:04:06;16.70;99.90
15713;DHT22;7957;51.608;6.916;2023-08-06T00:06:33;16.70;99.90
15713;DHT22;7957;51.608;6.916;2023-08-06T00:09:00;16.70;99.90
15713;DHT22;7957;51.608;6.916;2023-08-06T00:11:27;16.60;99.90
15713;DHT22;7957;51.608;6.916;2023-08-06T00:13:56;16.60;99.90
15713;DHT22;7957;51.608;6.916;2023-08-06T00:16:23;16.70;99.90
15713;DHT22;7957;51.608;6.916;2023-08-06T00:18:50;16.60;99.90
15713;DHT22;7957;51.608;6.916;2023-08-06T00:21:16;16.70;99.90
15713;DHT22;7957;51.608;6.916;2023-08-06T00:23:43;16.70;99.90
15713;DHT22;7957;51.608;6.916;2023-08-06T00:26:10;16.60;99.90
15713;DHT22;7957;51.608;6.916;2023-08-06T00:28:37;16.60;99.90
15713;DHT22;7957;51.608;6.916;2023-08-06T00:31:05;16.60;99.90
15713;DHT22;7957;51.608;6.916;2023-08-06T00:33:32;16.60;99.90
15713;DHT22;7957;51.608;6.916;2023-08-06T00:35:59;16.60;99.90
15713;DHT22;7957;51.608;6.916;2023-08-06T00:38:26;16.60;99.90
15713;DHT22;7957;51.608;6.916;2023-08-06T00:40:53;16.60;99.90
15713;DHT22;7957;51.608;6.916;2023-08-06T00:43:22;16.60;99.90
15713;DHT22;7957;51.608;6.916;2023-08-06T00:45:49;16.60;99.90
15713;DHT22;7957;51.608;6.916;2023-08-06T00:48:17;16.60;99.90
15713;DHT22;7957;51.608;6.916;2023-08-06T00:50:45;16.50;99.90
15713;DHT22;7957;51.608;6.916;2023-08-06T00:53:12;16.60;99.90
15713;DHT22;7957;51.608;6.916;2023-08-06T00:55:40;16.60;99.90
15713;DHT22;7957;51.608;6.916;2023-08-06T00:58:10;16.50;99.90
15713;DHT22;7957;51.608;6.916;2023-08-06T01:00:37;16.50;99.90
15713;DHT22;7957;51.608;6.916;2023-08-06T01:03:05;16.50;99.90
15713;DHT22;7957;51.608;6.916;2023-08-06T01:05:33;16.50;99.90
15713;DHT22;7957;51.608;6.916;2023-08-06T01:08:19;16.50;99.90
15713;DHT22;7957;51.608;6.916;2023-08-06T01:10:54;16.50;99.90
15713;DHT22;7957;51.608;6.916;2023-08-06T01:13:28;16.50;99.90
15713;DHT22;7957;51.608;6.916;2023-08-06T01:15:58;16.50;99.90
15713;DHT22;7957;51.608;6.916;2023-08-06T01:18:26;16.50;99.90
15713;DHT22;7957;51.608;6.916;2023-08-06T01:20:54;16.50;99.90
15713;DHT22;7957;51.608;6.916;2023-08-06T01:23:22;16.50;99.90
15713;DHT22;7957;51.608;6.916;2023-08-06T01:25:56;16.50;99.90
15713;DHT22;7957;51.608;6.916;2023-08-06T01:28:30;16.50;99.90
15713;DHT22;7957;51.608;6.916;2023-08-06T01:31:02;16.50;99.90
15713;DHT22;7957;51.608;6.916;2023-08-06T01:33:31;16.50;99.90
15713;DHT22;7957;51.608;6.916;2023-08-06T01:36:01;16.50;99.90
15713;DHT22;7957;51.608;6.916;2023-08-06T01:38:29;16.50;99.90
15713;DHT22;7957;51.608;6.916;2023-08-06T01:40:56;16.50;99.90
15713;DHT22;7957;51.608;6.916;2023-08-06T01:43:22;16.50;99.90
15713;DHT22;7957;51.608;6.916;2023-08-06T01:45:49;16.50;99.90
15713;DHT22;7957;51.608;6.916;2023-08-06T01:48:16;16.40;99.90
15713;DHT22;7957;51.608;6.916;2023-08-06T01:50:43;16.40;99.90
15713;DHT22;7957;51.608;6.916;2023-08-06T01:53:11;16.50;99.90
15713;DHT22;7957;51.608;6.916;2023-08-06T01:55:38;16.50;99.90
15713;DHT22;7957;51.608;6.916;2023-08-06T01:58:05;16.50;99.90
15713;DHT22;7957;51.608;6.916;2023-08-06T02:00:32;16.50;99.90
15713;DHT22;7957;51.608;6.916;2023-08-06T02:02:59;16.50;99.90
15713;DHT22;7957;51.608;6.916;2023-08-06T02:05:26;16.40;99.90
15713;DHT22;7957;51.608;6.916;2023-08-06T02:07:52;16.50;99.90
15713;DHT22;7957;51.608;6.916;2023-08-06T02:10:21;16.50;99.90
15713;DHT22;7957;51.608;6.916;2023-08-06T02:12:47;16.50;99.90
15713;DHT22;7957;51.608;6.916;2023-08-06T02:15:15;16.50;99.90
15713;DHT22;7957;51.608;6.916;2023-08-06T02:17:41;16.40;99.90
15713;DHT22;7957;51.608;6.916;2023-08-06T02:20:09;16.40;99.90
15713;DHT22;7957;51.608;6.916;2023-08-06T02:22:36;16.50;99.90
15713;DHT22;7957;51.608;6.916;2023-08-06T02:25:03;16.40;99.90
15713;DHT22;7957;51.608;6.916;2023-08-06T02:27:31;16.40;99.90
15713;DHT22;7957;51.608;6.916;2023-08-06T02:29:58;16.40;99.90
15713;DHT22;7957;51.608;6.916;2023-08-06T02:32:25;16.40;99.90
15713;DHT22;7957;51.608;6.916;2023-08-06T02:34:52;16.40;99.90
15713;DHT22;7957;51.608;6.916;2023-08-06T02:37:19;16.40;99.90
15713;DHT22;7957;51.608;6.916;2023-08-06T02:39:46;16.40;99.90
15713;DHT22;7957;51.608;6.916;2023-08-06T02:42:13;16.40;99.90
15713;DHT22;7957;51.608;6.916;2023-08-06T02:44:41;16.40;99.90
15713;DHT22;7957;51.608;6.916;2023-08-06T02:47:08;16.40;99.90
15713;DHT22;7957;51.608;6.916;2023-08-06T02:49:35;16.40;99.90
15713;DHT22;7957;51.608;6.916;2023-08-06T02:52:01;16.40;99.90
15713;DHT22;7957;51.608;6.916;2023-08-06T02:54:28;16.40;99.90
15713;DHT22;7957;51.608;6.916;2023-08-06T02:56:56;16.40;99.90
15713;DHT22;7957;51.608;6.916;2023-08-06T02:59:23;16.40;99.90
15713;DHT22;7957;51.608;6.916;2023-08-06T03:01:51;16.40;99.90
15713;DHT22;7957;51.608;6.916;2023-08-06T03:04:18;16.40;99.90
15713;DHT22;7957;51.608;6.916;2023-08-06T03:06:45;16.40;99.90
15713;DHT22;7957;51.608;6.916;2023-08-06T03:09:12;16.40;99.90
15713;DHT22;7957;51.608;6.916;2023-08-06T03:11:39;16.40;99.90
15713;DHT22;7957;51.608;6.916;2023-08-06T03:14:06;16.40;99.90
15713;DHT22;7957;51.608;6.916;2023-08-06T03:16:32;16.40;99.90
15713;DHT22;7957;51.608;6.916;2023-08-06T03:19:01;16.40;99.90
15713;DHT22;7957;51.608;6.916;2023-08-06T03:21:28;16.40;99.90
15713;DHT22;7957;51.608;6.916;2023-08-06T03:23:55;16.40;99.90
15713;DHT22;7957;51.608;6.916;2023-08-06T03:26:22;16.40;99.90
15713;DHT22;7957;51.608;6.916;2023-08-06T03:28:49;16.40;99.90
15713;DHT22;7957;51.608;6.916;2023-08-06T03:31:16;16.40;99.90
15713;DHT22;7957;51.608;6.916;2023-08-06T03:33:42;16.30;99.90
15713;DHT22;7957;51.608;6.916;2023-08-06T03:36:11;16.30;99.90
15713;DHT22;7957;51.608;6.916;2023-08-06T03:38:38;16.30;99.90
15713;DHT22;7957;51.608;6.916;2023-08-06T03:41:04;16.30;99.90
15713;DHT22;7957;51.608;6.916;2023-08-06T03:43:31;16.30;99.90
15713;DHT22;7957;51.608;6.916;2023-08-06T03:45:58;16.30;99.90
15713;DHT22;7957;51.608;6.916;2023-08-06T03:48:25;16.30;99.90
15713;DHT22;7957;51.608;6.916;2023-08-06T03:50:52;16.30;99.90
15713;DHT22;7957;51.608;6.916;2023-08-06T03:53:20;16.30;99.90
15713;DHT22;7957;51.608;6.916;2023-08-06T03:55:47;16.30;99.90
15713;DHT22;7957;51.608;6.916;2023-08-06T03:58:14;16.30;99.90
15713;DHT22;7957;51.608;6.916;2023-08-06T04:00:41;16.30;99.90
15713;DHT22;7957;51.608;6.916;2023-08-06T04:03:08;16.30;99.90
15713;DHT22;7957;51.608;6.916;2023-08-06T04:05:35;16.20;99.90
15713;DHT22;7957;51.608;6.916;2023-08-06T04:08:01;16.30;99.90
15713;DHT22;7957;51.608;6.916;2023-08-06T04:10:30;16.20;99.90
15713;DHT22;7957;51.608;6.916;2023-08-06T04:12:57;16.20;99.90
15713;DHT22;7957;51.608;6.916;2023-08-06T04:15:24;16.20;99.90
15713;DHT22;7957;51.608;6.916;2023-08-06T04:17:50;16.20;99.90
15713;DHT22;7957;51.608;6.916;2023-08-06T04:20:17;16.20;99.90
15713;DHT22;7957;51.608;6.916;2023-08-06T04:22:44;16.20;99.90
15713;DHT22;7957;51.608;6.916;2023-08-06T04:25:11;16.20;99.90
15713;DHT22;7957;51.608;6.916;2023-08-06T04:27:39;16.20;99.90
15713;DHT22;7957;51.608;6.916;2023-08-06T04:30:07;16.20;99.90
15713;DHT22;7957;51.608;6.916;2023-08-06T04:32:34;16.20;99.90
15713;DHT22;7957;51.608;6.916;2023-08-06T04:35:01;16.20;99.90
15713;DHT22;7957;51.608;6.916;2023-08-06T04:37:28;16.10;99.90
15713;DHT22;7957;51.608;6.916;2023-08-06T04:39:55;16.10;99.90
15713;DHT22;7957;51.608;6.916;2023-08-06T04:42:22;16.10;99.90
15713;DHT22;7957;51.608;6.916;2023-08-06T04:44:50;16.10;99.90
15713;DHT22;7957;51.608;6.916;2023-08-06T04:47:17;16.10;99.90
15713;DHT22;7957;51.608;6.916;2023-08-06T04:49:44;16.10;99.90
15713;DHT22;7957;51.608;6.916;2023-08-06T04:52:12;16.10;99.90
15713;DHT22;7957;51.608;6.916;2023-08-06T04:54:39;16.10;99.90
15713;DHT22;7957;51.608;6.916;2023-08-06T04:57:06;16.10;99.90
15713;DHT22;7957;51.608;6.916;2023-08-06T04:59:32;16.10;99.90
15713;DHT22;7957;51.608;6.916;2023-08-06T05:02:01;16.20;99.90
15713;DHT22;7957;51.608;6.916;2023-08-06T05:04:28;16.20;99.90
15713;DHT22;7957;51.608;6.916;2023-08-06T05:06:54;16.30;99.90
15713;DHT22;7957;51.608;6.916;2023-08-06T05:09:21;16.20;99.90
15713;DHT22;7957;51.608;6.916;2023-08-06T05:11:49;16.20;99.90
15713;DHT22;7957;51.608;6.916;2023-08-06T05:14:16;16.30;99.90
15713;DHT22;7957;51.608;6.916;2023-08-06T05:16:43;16.30;99.90
15713;DHT22;7957;51.608;6.916;2023-08-06T05:19:11;16.30;99.90
15713;DHT22;7957;51.608;6.916;2023-08-06T05:21:38;16.30;99.90
15713;DHT22;7957;51.608;6.916;2023-08-06T05:24:05;16.30;99.90
15713;DHT22;7957;51.608;6.916;2023-08-06T05:26:32;16.30;99.90
15713;DHT22;7957;51.608;6.916;2023-08-06T05:28:59;16.30;99.90
15713;DHT22;7957;51.608;6.916;2023-08-06T05:31:26;16.40;99.90
15713;DHT22;7957;51.608;6.916;2023-08-06T05:33:54;16.40;99.90
15713;DHT22;7957;51.608;6.916;2023-08-06T05:36:22;16.40;99.90
15713;DHT22;7957;51.608;6.916;2023-08-06T05:38:49;16.40;99.90
15713;DHT22;7957;51.608;6.916;2023-08-06T05:41:16;16.40;99.90
15713;DHT22;7957;51.608;6.916;2023-08-06T05:43:43;16.40;99.90
15713;DHT22;7957;51.608;6.916;2023-08-06T05:46:10;16.40;99.90
15713;DHT22;7957;51.608;6.916;2023-08-06T05:48:36;16.40;99.90
15713;DHT22;7957;51.608;6.916;2023-08-06T05:51:03;16.40;99.90
15713;DHT22;7957;51.608;6.916;2023-08-06T05:53:32;16.40;99.90
15713;DHT22;7957;51.608;6.916;2023-08-06T05:55:59;16.40;99.90
15713;DHT22;7957;51.608;6.916;2023-08-06T05:58:25;16.40;99.90
15713;DHT22;7957;51.608;6.916;2023-08-06T06:00:54;16.40;99.90
15713;DHT22;7957;51.608;6.916;2023-08-06T06:03:21;16.40;99.90
15713;DHT22;7957;51.608;6.916;2023-08-06T06:05:48;16.40;99.90
15713;DHT22;7957;51.608;6.916;2023-08-06T06:08:15;16.50;99.90
15713;DHT22;7957;51.608;6.916;2023-08-06T06:10:43;16.50;99.90
15713;DHT22;7957;51.608;6.916;2023-08-06T06:13:10;16.50;99.90
15713;DHT22;7957;51.608;6.916;2023-08-06T06:15:37;16.50;99.90
15713;DHT22;7957;51.608;6.916;2023-08-06T06:18:04;16.50;99.90
15713;DHT22;7957;51.608;6.916;2023-08-06T06:20:32;16.50;99.90
15713;DHT22;7957;51.608;6.916;2023-08-06T06:22:59;16.60;99.90
15713;DHT22;7957;51.608;6.916;2023-08-06T06:25:26;16.60;99.90
15713;DHT22;7957;51.608;6.916;2023-08-06T06:27:54;16.60;99.90
15713;DHT22;7957;51.608;6.916;2023-08-06T06:30:21;16.60;99.90
15713;DHT22;7957;51.608;6.916;2023-08-06T06:32:48;16.60;99.90
15713;DHT22;7957;51.608;6.916;2023-08-06T06:35:15;16.60;99.90
15713;DHT22;7957;51.608;6.916;2023-08-06T06:37:42;16.60;99.90
15713;DHT22;7957;51.608;6.916;2023-08-06T06:40:10;16.70;99.90
15713;DHT22;7957;51.608;6.916;2023-08-06T06:42:37;16.70;99.90
15713;DHT22;7957;51.608;6.916;2023-08-06T06:45:07;16.70;99.90
15713;DHT22;7957;51.608;6.916;2023-08-06T06:47:34;16.70;99.90
15713;DHT22;7957;51.608;6.916;2023-08-06T06:50:01;16.80;99.90
15713;DHT22;7957;51.608;6.916;2023-08-06T06:52:28;16.80;99.90
15713;DHT22;7957;51.608;6.916;2023-08-06T06:54:55;16.80;99.90
15713;DHT22;7957;51.608;6.916;2023-08-06T06:57:21;16.80;99.90
15713;DHT22;7957;51.608;6.916;2023-08-06T06:59:48;16.90;99.90
15713;DHT22;7957;51.608;6.916;2023-08-06T07:02:17;16.90;99.90
15713;DHT22;7957;51.608;6.916;2023-08-06T07:04:46;16.90;99.90
15713;DHT22;7957;51.608;6.916;2023-08-06T07:07:13;17.00;99.90
15713;DHT22;7957;51.608;6.916;2023-08-06T07:09:40;17.00;99.90
15713;DHT22;7957;51.608;6.916;2023-08-06T07:12:07;17.10;99.90
15713;DHT22;7957;51.608;6.916;2023-08-06T07:14:37;17.10;99.90
15713;DHT22;7957;51.608;6.916;2023-08-06T07:17:05;17.10;99.90
15713;DHT22;7957;51.608;6.916;2023-08-06T07:19:33;17.20;99.90
15713;DHT22;7957;51.608;6.916;2023-08-06T07:22:00;17.20;99.90
15713;DHT22;7957;51.608;6.916;2023-08-06T07:24:27;17.20;99.90
15713;DHT22;7957;51.608;6.916;2023-08-06T07:26:54;17.20;99.90
15713;DHT22;7957;51.608;6.916;2023-08-06T07:29:20;17.20;99.90
15713;DHT22;7957;51.608;6.916;2023-08-06T07:31:48;17.30;99.90
15713;DHT22;7957;51.608;6.916;2023-08-06T07:34:15;17.30;99.90
15713;DHT22;7957;51.608;6.916;2023-08-06T07:36:45;17.30;99.90
15713;DHT22;7957;51.608;6.916;2023-08-06T07:39:15;17.40;99.90
15713;DHT22;7957;51.608;6.916;2023-08-06T07:41:42;17.50;99.90
15713;DHT22;7957;51.608;6.916;2023-08-06T07:44:11;17.50;99.90
15713;DHT22;7957;51.608;6.916;2023-08-06T07:46:38;17.60;99.90
15713;DHT22;7957;51.608;6.916;2023-08-06T07:49:05;17.60;99.90
15713;DHT22;7957;51.608;6.916;2023-08-06T07:51:32;17.70;99.90
15713;DHT22;7957;51.608;6.916;2023-08-06T07:54:00;17.70;99.90
15713;DHT22;7957;51.608;6.916;2023-08-06T07:56:27;17.70;99.90
15713;DHT22;7957;51.608;6.916;2023-08-06T07:58:54;17.70;99.90
15713;DHT22;7957;51.608;6.916;2023-08-06T08:01:21;17.60;99.90
15713;DHT22;7957;51.608;6.916;2023-08-06T08:03:48;17.60;99.90
15713;DHT22;7957;51.608;6.916;2023-08-06T08:06:14;17.60;99.90
15713;DHT22;7957;51.608;6.916;2023-08-06T08:08:41;17.60;99.90
15713;DHT22;7957;51.608;6.916;2023-08-06T08:11:10;17.60;99.90
15713;DHT22;7957;51.608;6.916;2023-08-06T08:13:37;17.60;99.90
15713;DHT22;7957;51.608;6.916;2023-08-06T08:16:04;17.50;99.90
15713;DHT22;7957;51.608;6.916;2023-08-06T08:18:31;17.50;99.90
15713;DHT22;7957;51.608;6.916;2023-08-06T08:20:58;17.50;99.90
15713;DHT22;7957;51.608;6.916;2023-08-06T08:23:25;17.60;99.90
15713;DHT22;7957;51.608;6.916;2023-08-06T08:25:52;17.60;99.90
15713;DHT22;7957;51.608;6.916;2023-08-06T08:28:20;17.60;99.90
15713;DHT22;7957;51.608;6.916;2023-08-06T08:30:47;17.60;99.90
15713;DHT22;7957;51.608;6.916;2023-08-06T08:33:14;17.60;99.90
15713;DHT22;7957;51.608;6.916;2023-08-06T08:35:41;17.60;99.90
15713;DHT22;7957;51.608;6.916;2023-08-06T08:38:08;17.60;99.90
15713;DHT22;7957;51.608;6.916;2023-08-06T08:40:37;17.70;99.90
15713;DHT22;7957;51.608;6.916;2023-08-06T08:43:06;17.70;99.90
15713;DHT22;7957;51.608;6.916;2023-08-06T08:45:35;17.70;99.90
15713;DHT22;7957;51.608;6.916;2023-08-06T08:48:06;17.80;99.90
15713;DHT22;7957;51.608;6.916;2023-08-06T08:50:33;17.80;99.90
15713;DHT22;7957;51.608;6.916;2023-08-06T08:53:01;17.90;99.90
15713;DHT22;7957;51.608;6.916;2023-08-06T08:55:28;18.00;99.90
15713;DHT22;7957;51.608;6.916;2023-08-06T08:57:55;18.10;99.90
15713;DHT22;7957;51.608;6.916;2023-08-06T09:00:22;18.20;99.90
15713;DHT22;7957;51.608;6.916;2023-08-06T09:02:50;18.20;99.90
15713;DHT22;7957;51.608;6.916;2023-08-06T09:05:18;18.30;99.90
15713;DHT22;7957;51.608;6.916;2023-08-06T09:07:48;18.30;99.90
15713;DHT22;7957;51.608;6.916;2023-08-06T09:10:16;18.30;99.90
15713;DHT22;7957;51.608;6.916;2023-08-06T09:12:44;18.40;99.90
15713;DHT22;7957;51.608;6.916;2023-08-06T09:15:11;18.30;99.90
15713;DHT22;7957;51.608;6.916;2023-08-06T09:17:38;18.30;99.90
15713;DHT22;7957;51.608;6.916;2023-08-06T09:20:14;18.30;99.90
15713;DHT22;7957;51.608;6.916;2023-08-06T09:22:42;18.30;99.90
15713;DHT22;7957;51.608;6.916;2023-08-06T09:25:10;18.30;99.90
15713;DHT22;7957;51.608;6.916;2023-08-06T09:27:39;18.30;99.90
15713;DHT22;7957;51.608;6.916;2023-08-06T09:30:07;18.30;99.90
15713;DHT22;7957;51.608;6.916;2023-08-06T09:32:46;18.30;99.90
15713;DHT22;7957;51.608;6.916;2023-08-06T09:35:17;18.30;99.90
15713;DHT22;7957;51.608;6.916;2023-08-06T09:37:44;18.20;99.90
15713;DHT22;7957;51.608;6.916;2023-08-06T09:40:25;18.20;99.90
15713;DHT22;7957;51.608;6.916;2023-08-06T09:42:52;18.30;99.90
15713;DHT22;7957;51.608;6.916;2023-08-06T09:45:19;18.30;99.90
15713;DHT22;7957;51.608;6.916;2023-08-06T09:47:47;18.30;99.90
15713;DHT22;7957;51.608;6.916;2023-08-06T09:50:19;18.30;99.90
15713;DHT22;7957;51.608;6.916;2023-08-06T09:52:47;18.30;99.90
15713;DHT22;7957;51.608;6.916;2023-08-06T09:55:15;18.40;99.90
15713;DHT22;7957;51.608;6.916;2023-08-06T09:57:42;18.40;99.90
15713;DHT22;7957;51.608;6.916;2023-08-06T10:00:10;18.50;99.90
15713;DHT22;7957;51.608;6.916;2023-08-06T10:02:40;18.60;99.90
15713;DHT22;7957;51.608;6.916;2023-08-06T10:05:08;18.70;99.90
15713;DHT22;7957;51.608;6.916;2023-08-06T10:07:37;18.80;99.90
15713;DHT22;7957;51.608;6.916;2023-08-06T10:10:06;18.80;99.90
15713;DHT22;7957;51.608;6.916;2023-08-06T10:12:35;18.90;99.90
15713;DHT22;7957;51.608;6.916;2023-08-06T10:15:08;18.90;99.90
15713;DHT22;7957;51.608;6.916;2023-08-06T10:17:37;18.90;99.90
15713;DHT22;7957;51.608;6.916;2023-08-06T10:20:05;19.00;99.90
15713;DHT22;7957;51.608;6.916;2023-08-06T10:22:34;19.00;99.90
15713;DHT22;7957;51.608;6.916;2023-08-06T10:25:03;19.00;99.90
15713;DHT22;7957;51.608;6.916;2023-08-06T10:27:33;19.00;99.90
15713;DHT22;7957;51.608;6.916;2023-08-06T10:30:22;19.00;99.90
15713;DHT22;7957;51.608;6.916;2023-08-06T10:32:49;19.00;99.90
15713;DHT22;7957;51.608;6.916;2023-08-06T10:36:08;19.00;99.90
15713;DHT22;7957;51.608;6.916;2023-08-06T10:38:36;18.90;99.90
15713;DHT22;7957;51.608;6.916;2023-08-06T10:41:15;18.90;99.90
15713;DHT22;7957;51.608;6.916;2023-08-06T10:43:42;18.90;99.90
15713;DHT22;7957;51.608;6.916;2023-08-06T10:46:20;18.90;99.90
15713;DHT22;7957;51.608;6.916;2023-08-06T10:48:47;18.80;99.90
15713;DHT22;7957;51.608;6.916;2023-08-06T10:51:14;18.80;99.90
15713;DHT22;7957;51.608;6.916;2023-08-06T10:53:42;18.80;99.90
15713;DHT22;7957;51.608;6.916;2023-08-06T10:56:14;18.80;99.90
15713;DHT22;7957;51.608;6.916;2023-08-06T10:58:41;18.80;99.90
15713;DHT22;7957;51.608;6.916;2023-08-06T11:01:08;18.80;99.90
15713;DHT22;7957;51.608;6.916;2023-08-06T11:03:35;18.80;99.90
15713;DHT22;7957;51.608;6.916;2023-08-06T11:06:02;18.80;99.90
15713;DHT22;7957;51.608;6.916;2023-08-06T11:08:34;18.80;99.90
15713;DHT22;7957;51.608;6.916;2023-08-06T11:11:08;18.80;99.90
15713;DHT22;7957;51.608;6.916;2023-08-06T11:13:37;18.80;99.90
15713;DHT22;7957;51.608;6.916;2023-08-06T11:16:04;18.80;99.90
15713;DHT22;7957;51.608;6.916;2023-08-06T11:18:31;18.80;99.90
15713;DHT22;7957;51.608;6.916;2023-08-06T11:20:59;18.90;99.90
15713;DHT22;7957;51.608;6.916;2023-08-06T11:23:30;18.90;99.90
15713;DHT22;7957;51.608;6.916;2023-08-06T11:25:57;18.80;99.90
15713;DHT22;7957;51.608;6.916;2023-08-06T11:28:24;18.80;99.90
15713;DHT22;7957;51.608;6.916;2023-08-06T11:30:53;18.80;99.90
15713;DHT22;7957;51.608;6.916;2023-08-06T11:33:22;18.80;99.90
15713;DHT22;7957;51.608;6.916;2023-08-06T11:35:51;18.80;99.90
15713;DHT22;7957;51.608;6.916;2023-08-06T11:38:18;18.70;99.90
15713;DHT22;7957;51.608;6.916;2023-08-06T11:40:45;18.60;99.90
15713;DHT22;7957;51.608;6.916;2023-08-06T11:43:12;18.60;99.90
15713;DHT22;7957;51.608;6.916;2023-08-06T11:45:39;18.60;99.90
15713;DHT22;7957;51.608;6.916;2023-08-06T11:48:08;18.60;99.90
15713;DHT22;7957;51.608;6.916;2023-08-06T11:50:37;18.60;99.90
15713;DHT22;7957;51.608;6.916;2023-08-06T11:53:05;18.50;99.90
15713;DHT22;7957;51.608;6.916;2023-08-06T11:55:32;18.50;99.90
15713;DHT22;7957;51.608;6.916;2023-08-06T11:58:03;18.50;99.90
15713;DHT22;7957;51.608;6.916;2023-08-06T12:00:30;18.50;99.90
15713;DHT22;7957;51.608;6.916;2023-08-06T12:02:57;18.40;99.90
15713;DHT22;7957;51.608;6.916;2023-08-06T12:05:30;18.40;99.90
15713;DHT22;7957;51.608;6.916;2023-08-06T12:07:59;18.40;99.90
15713;DHT22;7957;51.608;6.916;2023-08-06T12:10:27;18.40;99.90
15713;DHT22;7957;51.608;6.916;2023-08-06T12:12:55;18.40;99.90
15713;DHT22;7957;51.608;6.916;2023-08-06T12:15:22;18.40;99.90
15713;DHT22;7957;51.608;6.916;2023-08-06T12:17:49;18.30;99.90
15713;DHT22;7957;51.608;6.916;2023-08-06T12:20:16;18.20;99.90
15713;DHT22;7957;51.608;6.916;2023-08-06T12:22:46;18.10;99.90
15713;DHT22;7957;51.608;6.916;2023-08-06T12:25:13;17.90;99.90
15713;DHT22;7957;51.608;6.916;2023-08-06T12:27:41;17.80;99.90
15713;DHT22;7957;51.608;6.916;2023-08-06T12:30:09;17.70;99.90
15713;DHT22;7957;51.608;6.916;2023-08-06T12:32:36;17.70;99.90
15713;DHT22;7957;51.608;6.916;2023-08-06T12:35:04;17.60;99.90
15713;DHT22;7957;51.608;6.916;2023-08-06T12:37:33;17.60;99.90
15713;DHT22;7957;51.608;6.916;2023-08-06T12:40:01;17.50;99.90
15713;DHT22;7957;51.608;6.916;2023-08-06T12:42:28;17.40;99.90
15713;DHT22;7957;51.608;6.916;2023-08-06T12:44:55;17.40;99.90
15713;DHT22;7957;51.608;6.916;2023-08-06T12:47:22;17.30;99.90
15713;DHT22;7957;51.608;6.916;2023-08-06T12:49:49;17.20;99.90
15713;DHT22;7957;51.608;6.916;2023-08-06T12:52:16;17.20;99.90
15713;DHT22;7957;51.608;6.916;2023-08-06T12:54:45;17.20;99.90
15713;DHT22;7957;51.608;6.916;2023-08-06T12:57:13;17.20;99.90
15713;DHT22;7957;51.608;6.916;2023-08-06T12:59:40;17.10;99.90
15713;DHT22;7957;51.608;6.916;2023-08-06T13:02:07;17.10;99.90
15713;DHT22;7957;51.608;6.916;2023-08-06T13:04:34;17.10;99.90
15713;DHT22;7957;51.608;6.916;2023-08-06T13:07:01;17.10;99.90
15713;DHT22;7957;51.608;6.916;2023-08-06T13:09:28;17.10;99.90
15713;DHT22;7957;51.608;6.916;2023-08-06T13:11:56;17.00;99.90
15713;DHT22;7957;51.608;6.916;2023-08-06T13:14:24;17.00;99.90
15713;DHT22;7957;51.608;6.916;2023-08-06T13:16:51;17.00;99.90
15713;DHT22;7957;51.608;6.916;2023-08-06T13:19:18;17.00;99.90
15713;DHT22;7957;51.608;6.916;2023-08-06T13:21:59;17.10;99.90
15713;DHT22;7957;51.608;6.916;2023-08-06T13:24:27;17.10;99.90
15713;DHT22;7957;51.608;6.916;2023-08-06T13:26:54;17.10;99.90
15713;DHT22;7957;51.608;6.916;2023-08-06T13:29:21;17.10;99.90
15713;DHT22;7957;51.608;6.916;2023-08-06T13:31:50;17.10;99.90
15713;DHT22;7957;51.608;6.916;2023-08-06T13:34:17;17.10;99.90
15713;DHT22;7957;51.608;6.916;2023-08-06T13:36:44;17.10;99.90
15713;DHT22;7957;51.608;6.916;2023-08-06T13:39:11;17.10;99.90
15713;DHT22;7957;51.608;6.916;2023-08-06T13:41:41;17.10;99.90
15713;DHT22;7957;51.608;6.916;2023-08-06T13:44:08;17.20;99.90
15713;DHT22;7957;51.608;6.916;2023-08-06T13:46:36;17.20;99.90
15713;DHT22;7957;51.608;6.916;2023-08-06T13:49:04;17.20;99.90
15713;DHT22;7957;51.608;6.916;2023-08-06T13:51:31;17.20;99.90
15713;DHT22;7957;51.608;6.916;2023-08-06T13:53:59;17.20;99.90
15713;DHT22;7957;51.608;6.916;2023-08-06T13:56:26;17.20;99.90
15713;DHT22;7957;51.608;6.916;2023-08-06T13:58:55;17.20;99.90
15713;DHT22;7957;51.608;6.916;2023-08-06T14:01:21;17.30;99.90
15713;DHT22;7957;51.608;6.916;2023-08-06T14:03:48;17.30;99.90
15713;DHT22;7957;51.608;6.916;2023-08-06T14:06:17;17.30;99.90
15713;DHT22;7957;51.608;6.916;2023-08-06T14:08:43;17.40;99.90
15713;DHT22;7957;51.608;6.916;2023-08-06T14:11:10;17.30;99.90
15713;DHT22;7957;51.608;6.916;2023-08-06T14:13:37;17.40;99.90
15713;DHT22;7957;51.608;6.916;2023-08-06T14:16:04;17.40;99.90
15713;DHT22;7957;51.608;6.916;2023-08-06T14:18:31;17.40;99.90
15713;DHT22;7957;51.608;6.916;2023-08-06T14:20:58;17.30;99.90
15713;DHT22;7957;51.608;6.916;2023-08-06T14:23:26;17.30;99.90
15713;DHT22;7957;51.608;6.916;2023-08-06T14:25:53;17.30;99.90
15713;DHT22;7957;51.608;6.916;2023-08-06T14:28:20;17.30;99.90
15713;DHT22;7957;51.608;6.916;2023-08-06T14:30:47;17.30;99.90
15713;DHT22;7957;51.608;6.916;2023-08-06T14:33:14;17.30;99.90
15713;DHT22;7957;51.608;6.916;2023-08-06T14:35:40;17.30;99.90
15713;DHT22;7957;51.608;6.916;2023-08-06T14:38:07;17.30;99.90
15713;DHT22;7957;51.608;6.916;2023-08-06T14:40:36;17.30;99.90
15713;DHT22;7957;51.608;6.916;2023-08-06T14:43:04;17.30;99.90
15713;DHT22;7957;51.608;6.916;2023-08-06T14:45:31;17.30;99.90
15713;DHT22;7957;51.608;6.916;2023-08-06T14:47:58;17.40;99.90
15713;DHT22;7957;51.608;6.916;2023-08-06T14:50:25;17.40;99.90
15713;DHT22;7957;51.608;6.916;2023-08-06T14:52:52;17.40;99.90
15713;DHT22;7957;51.608;6.916;2023-08-06T14:55:24;17.40;99.90
15713;DHT22;7957;51.608;6.916;2023-08-06T14:57:52;17.50;99.90
15713;DHT22;7957;51.608;6.916;2023-08-06T15:00:20;17.50;99.90
15713;DHT22;7957;51.608;6.916;2023-08-06T15:02:47;17.50;99.90
15713;DHT22;7957;51.608;6.916;2023-08-06T15:05:14;17.50;99.90
15713;DHT22;7957;51.608;6.916;2023-08-06T15:07:41;17.50;99.90
15713;DHT22;7957;51.608;6.916;2023-08-06T15:10:08;17.60;99.90
15713;DHT22;7957;51.608;6.916;2023-08-06T15:12:35;17.60;99.90
15713;DHT22;7957;51.608;6.916;2023-08-06T15:15:05;17.50;99.90
15713;DHT22;7957;51.608;6.916;2023-08-06T15:17:32;17.50;99.90
15713;DHT22;7957;51.608;6.916;2023-08-06T15:19:59;17.60;99.90
15713;DHT22;7957;51.608;6.916;2023-08-06T15:22:27;17.60;99.90
15713;DHT22;7957;51.608;6.916;2023-08-06T15:24:54;17.60;99.90
15713;DHT22;7957;51.608;6.916;2023-08-06T15:27:21;17.60;99.90
15713;DHT22;7957;51.608;6.916;2023-08-06T15:29:48;17.60;99.90
15713;DHT22;7957;51.608;6.916;2023-08-06T15:32:17;17.60;99.90
15713;DHT22;7957;51.608;6.916;2023-08-06T15:34:44;17.60;99.90
15713;DHT22;7957;51.608;6.916;2023-08-06T15:37:12;17.60;99.90
15713;DHT22;7957;51.608;6.916;2023-08-06T15:39:39;17.60;99.90
15713;DHT22;7957;51.608;6.916;2023-08-06T15:42:07;17.60;99.90
15713;DHT22;7957;51.608;6.916;2023-08-06T15:44:34;17.70;99.90
15713;DHT22;7957;51.608;6.916;2023-08-06T15:47:00;17.70;99.90
15713;DHT22;7957;51.608;6.916;2023-08-06T15:49:29;17.70;99.90